East Quogue, New York
Current Conditions -  °F | °C
As of 8:53 AM on Wednesday 28 Jan 2015 (Local Time) from KFOK Reporting Station
Clear Clear  
Wind Chill:   Ceiling: Unl
Heat Index: 19°   Visibility: 8mi
Dew Point:   Wind: 16mph
Humidity: 62%   Direction: 350°N
Pressure: 29.98"   Gusts: 26mph
Location:  40.85°N, 72.58°W
Report Text: KFOK 281353Z 35014G23KT 8SM CLR M07/M13 A2998 RMK AO2 PK WND 33026/1300 SLP152 T10721133 $
Loading
Personal Weather Stations






























Interactive Weather Map New forecast layout! Learn more

10-Day Weather Forecast

Advertisements
Track Severe Weather on mobile